sensor_id;sensor_type;location;lat;lon;timestamp;P1;durP1;ratioP1;P2;durP2;ratioP2
78989;SDS011;68390;52.130;21.218;2023-07-09T00:00:48;10.48;;;6.25;;
78989;SDS011;68390;52.130;21.218;2023-07-09T00:03:17;9.68;;;6.65;;
78989;SDS011;68390;52.130;21.218;2023-07-09T00:05:45;12.13;;;7.35;;
78989;SDS011;68390;52.130;21.218;2023-07-09T00:10:51;9.00;;;7.30;;
78989;SDS011;68390;52.130;21.218;2023-07-09T00:13:17;12.77;;;7.95;;
78989;SDS011;68390;52.130;21.218;2023-07-09T00:15:42;11.75;;;7.28;;
78989;SDS011;68390;52.130;21.218;2023-07-09T00:18:08;9.70;;;6.80;;
78989;SDS011;68390;52.130;21.218;2023-07-09T00:20:34;9.90;;;7.35;;
78989;SDS011;68390;52.130;21.218;2023-07-09T00:23:00;11.13;;;6.22;;
78989;SDS011;68390;52.130;21.218;2023-07-09T00:25:25;9.27;;;6.53;;
78989;SDS011;68390;52.130;21.218;2023-07-09T00:27:50;9.20;;;5.82;;
78989;SDS011;68390;52.130;21.218;2023-07-09T00:30:20;13.32;;;7.05;;
78989;SDS011;68390;52.130;21.218;2023-07-09T00:32:47;8.77;;;6.10;;
78989;SDS011;68390;52.130;21.218;2023-07-09T00:35:13;9.23;;;7.03;;
78989;SDS011;68390;52.130;21.218;2023-07-09T00:37:42;10.43;;;6.60;;
78989;SDS011;68390;52.130;21.218;2023-07-09T00:40:19;8.63;;;6.32;;
78989;SDS011;68390;52.130;21.218;2023-07-09T00:42:48;9.98;;;7.25;;
78989;SDS011;68390;52.130;21.218;2023-07-09T00:45:19;7.72;;;6.32;;
78989;SDS011;68390;52.130;21.218;2023-07-09T00:53:49;10.40;;;6.20;;
78989;SDS011;68390;52.130;21.218;2023-07-09T00:55:58;9.77;;;7.32;;
78989;SDS011;68390;52.130;21.218;2023-07-09T00:58:28;10.50;;;7.63;;
78989;SDS011;68390;52.130;21.218;2023-07-09T01:00:55;10.35;;;6.57;;
78989;SDS011;68390;52.130;21.218;2023-07-09T01:03:28;8.88;;;6.80;;
78989;SDS011;68390;52.130;21.218;2023-07-09T01:05:59;11.48;;;7.60;;
78989;SDS011;68390;52.130;21.218;2023-07-09T01:08:25;8.57;;;6.07;;
78989;SDS011;68390;52.130;21.218;2023-07-09T01:10:55;11.02;;;6.32;;
78989;SDS011;68390;52.130;21.218;2023-07-09T01:13:21;10.63;;;6.43;;
78989;SDS011;68390;52.130;21.218;2023-07-09T01:15:46;10.15;;;7.00;;
78989;SDS011;68390;52.130;21.218;2023-07-09T01:18:12;9.07;;;6.63;;
78989;SDS011;68390;52.130;21.218;2023-07-09T01:20:39;8.82;;;6.32;;
78989;SDS011;68390;52.130;21.218;2023-07-09T01:23:05;9.90;;;6.45;;
78989;SDS011;68390;52.130;21.218;2023-07-09T01:25:33;9.93;;;7.30;;
78989;SDS011;68390;52.130;21.218;2023-07-09T01:28:00;11.10;;;7.18;;
78989;SDS011;68390;52.130;21.218;2023-07-09T01:30:27;9.25;;;6.95;;
78989;SDS011;68390;52.130;21.218;2023-07-09T01:33:04;8.80;;;6.40;;
78989;SDS011;68390;52.130;21.218;2023-07-09T01:35:31;9.77;;;6.53;;
78989;SDS011;68390;52.130;21.218;2023-07-09T01:37:58;10.77;;;7.03;;
78989;SDS011;68390;52.130;21.218;2023-07-09T01:40:24;11.38;;;7.45;;
78989;SDS011;68390;52.130;21.218;2023-07-09T01:42:52;10.45;;;6.07;;
78989;SDS011;68390;52.130;21.218;2023-07-09T01:45:18;8.98;;;6.45;;
78989;SDS011;68390;52.130;21.218;2023-07-09T01:47:45;8.98;;;6.85;;
78989;SDS011;68390;52.130;21.218;2023-07-09T01:50:11;6.32;;;5.10;;
78989;SDS011;68390;52.130;21.218;2023-07-09T01:52:37;10.07;;;6.25;;
78989;SDS011;68390;52.130;21.218;2023-07-09T01:55:06;9.43;;;6.82;;
78989;SDS011;68390;52.130;21.218;2023-07-09T01:57:33;9.90;;;6.70;;
78989;SDS011;68390;52.130;21.218;2023-07-09T02:00:09;8.73;;;6.40;;
78989;SDS011;68390;52.130;21.218;2023-07-09T02:02:38;10.13;;;6.43;;
78989;SDS011;68390;52.130;21.218;2023-07-09T02:05:08;7.60;;;5.70;;
78989;SDS011;68390;52.130;21.218;2023-07-09T02:07:34;7.18;;;5.53;;
78989;SDS011;68390;52.130;21.218;2023-07-09T02:09:59;7.65;;;5.90;;
78989;SDS011;68390;52.130;21.218;2023-07-09T02:12:25;9.17;;;5.93;;
78989;SDS011;68390;52.130;21.218;2023-07-09T02:14:50;9.43;;;6.50;;
78989;SDS011;68390;52.130;21.218;2023-07-09T02:17:16;7.45;;;5.68;;
78989;SDS011;68390;52.130;21.218;2023-07-09T02:19:41;7.95;;;6.28;;
78989;SDS011;68390;52.130;21.218;2023-07-09T02:22:08;8.32;;;5.80;;
78989;SDS011;68390;52.130;21.218;2023-07-09T02:24:34;6.85;;;4.50;;
78989;SDS011;68390;52.130;21.218;2023-07-09T02:27:01;9.90;;;6.38;;
78989;SDS011;68390;52.130;21.218;2023-07-09T02:29:28;8.73;;;5.88;;
78989;SDS011;68390;52.130;21.218;2023-07-09T02:31:54;7.03;;;6.00;;
78989;SDS011;68390;52.130;21.218;2023-07-09T02:34:24;10.25;;;6.07;;
78989;SDS011;68390;52.130;21.218;2023-07-09T02:36:53;8.70;;;5.70;;
78989;SDS011;68390;52.130;21.218;2023-07-09T02:39:20;7.45;;;5.22;;
78989;SDS011;68390;52.130;21.218;2023-07-09T02:41:46;9.23;;;6.43;;
78989;SDS011;68390;52.130;21.218;2023-07-09T02:44:12;8.63;;;6.03;;
78989;SDS011;68390;52.130;21.218;2023-07-09T02:46:38;10.50;;;5.28;;
78989;SDS011;68390;52.130;21.218;2023-07-09T02:49:04;11.07;;;6.50;;
78989;SDS011;68390;52.130;21.218;2023-07-09T02:51:31;7.07;;;5.43;;
78989;SDS011;68390;52.130;21.218;2023-07-09T02:53:57;10.32;;;6.00;;
78989;SDS011;68390;52.130;21.218;2023-07-09T02:56:23;8.75;;;6.15;;
78989;SDS011;68390;52.130;21.218;2023-07-09T02:58:49;9.35;;;5.95;;
78989;SDS011;68390;52.130;21.218;2023-07-09T03:01:15;6.95;;;5.32;;
78989;SDS011;68390;52.130;21.218;2023-07-09T03:03:41;9.35;;;4.90;;
78989;SDS011;68390;52.130;21.218;2023-07-09T03:06:06;7.35;;;5.53;;
78989;SDS011;68390;52.130;21.218;2023-07-09T03:08:32;8.20;;;5.20;;
78989;SDS011;68390;52.130;21.218;2023-07-09T03:10:57;8.90;;;5.82;;
78989;SDS011;68390;52.130;21.218;2023-07-09T03:13:23;12.00;;;5.90;;
78989;SDS011;68390;52.130;21.218;2023-07-09T03:15:55;10.25;;;6.97;;
78989;SDS011;68390;52.130;21.218;2023-07-09T03:18:22;9.55;;;6.35;;
78989;SDS011;68390;52.130;21.218;2023-07-09T03:20:47;9.52;;;5.95;;
78989;SDS011;68390;52.130;21.218;2023-07-09T03:23:13;8.98;;;6.15;;
78989;SDS011;68390;52.130;21.218;2023-07-09T03:25:41;8.10;;;5.50;;
78989;SDS011;68390;52.130;21.218;2023-07-09T03:28:07;8.98;;;6.07;;
78989;SDS011;68390;52.130;21.218;2023-07-09T03:30:33;8.63;;;5.93;;
78989;SDS011;68390;52.130;21.218;2023-07-09T03:32:58;8.80;;;5.03;;
78989;SDS011;68390;52.130;21.218;2023-07-09T03:35:25;13.18;;;7.20;;
78989;SDS011;68390;52.130;21.218;2023-07-09T03:37:50;13.00;;;7.18;;
78989;SDS011;68390;52.130;21.218;2023-07-09T03:40:22;10.68;;;6.53;;
78989;SDS011;68390;52.130;21.218;2023-07-09T03:42:48;9.45;;;5.72;;
78989;SDS011;68390;52.130;21.218;2023-07-09T03:45:14;9.80;;;6.10;;
78989;SDS011;68390;52.130;21.218;2023-07-09T03:47:40;12.32;;;6.50;;
78989;SDS011;68390;52.130;21.218;2023-07-09T03:50:08;13.77;;;6.00;;
78989;SDS011;68390;52.130;21.218;2023-07-09T03:52:35;9.43;;;6.43;;
78989;SDS011;68390;52.130;21.218;2023-07-09T03:55:00;9.20;;;5.63;;
78989;SDS011;68390;52.130;21.218;2023-07-09T03:57:29;7.20;;;5.75;;
78989;SDS011;68390;52.130;21.218;2023-07-09T03:59:54;9.25;;;6.03;;
78989;SDS011;68390;52.130;21.218;2023-07-09T04:02:20;10.23;;;6.63;;
78989;SDS011;68390;52.130;21.218;2023-07-09T04:04:48;10.52;;;6.10;;
78989;SDS011;68390;52.130;21.218;2023-07-09T04:07:14;8.48;;;5.95;;
78989;SDS011;68390;52.130;21.218;2023-07-09T04:09:40;7.07;;;5.18;;
78989;SDS011;68390;52.130;21.218;2023-07-09T04:12:06;9.35;;;5.78;;
78989;SDS011;68390;52.130;21.218;2023-07-09T04:14:32;6.07;;;5.05;;
78989;SDS011;68390;52.130;21.218;2023-07-09T04:16:57;8.25;;;5.70;;
78989;SDS011;68390;52.130;21.218;2023-07-09T04:19:23;9.13;;;5.55;;
78989;SDS011;68390;52.130;21.218;2023-07-09T04:21:48;8.05;;;5.20;;
78989;SDS011;68390;52.130;21.218;2023-07-09T04:24:16;5.90;;;5.30;;
78989;SDS011;68390;52.130;21.218;2023-07-09T04:26:42;7.30;;;5.43;;
78989;SDS011;68390;52.130;21.218;2023-07-09T04:29:08;6.55;;;5.30;;
78989;SDS011;68390;52.130;21.218;2023-07-09T04:31:34;5.18;;;4.68;;
78989;SDS011;68390;52.130;21.218;2023-07-09T04:33:59;7.43;;;5.25;;
78989;SDS011;68390;52.130;21.218;2023-07-09T04:36:24;7.60;;;5.20;;
78989;SDS011;68390;52.130;21.218;2023-07-09T04:38:51;7.10;;;5.20;;
78989;SDS011;68390;52.130;21.218;2023-07-09T04:41:16;6.70;;;5.00;;
78989;SDS011;68390;52.130;21.218;2023-07-09T04:43:42;8.43;;;4.85;;
78989;SDS011;68390;52.130;21.218;2023-07-09T04:46:07;8.17;;;5.00;;
78989;SDS011;68390;52.130;21.218;2023-07-09T04:48:32;7.07;;;5.30;;
78989;SDS011;68390;52.130;21.218;2023-07-09T04:50:58;8.30;;;5.30;;
78989;SDS011;68390;52.130;21.218;2023-07-09T04:53:25;10.52;;;5.10;;
78989;SDS011;68390;52.130;21.218;2023-07-09T04:55:50;7.90;;;5.25;;
78989;SDS011;68390;52.130;21.218;2023-07-09T04:58:16;6.65;;;5.00;;
78989;SDS011;68390;52.130;21.218;2023-07-09T05:00:43;7.93;;;4.70;;
78989;SDS011;68390;52.130;21.218;2023-07-09T05:03:08;6.57;;;4.78;;
78989;SDS011;68390;52.130;21.218;2023-07-09T05:05:34;7.25;;;5.13;;
78989;SDS011;68390;52.130;21.218;2023-07-09T05:07:59;6.45;;;4.40;;
78989;SDS011;68390;52.130;21.218;2023-07-09T05:10:25;7.78;;;4.25;;
78989;SDS011;68390;52.130;21.218;2023-07-09T05:12:52;6.47;;;4.05;;
78989;SDS011;68390;52.130;21.218;2023-07-09T05:15:20;6.25;;;3.85;;
78989;SDS011;68390;52.130;21.218;2023-07-09T05:17:46;6.18;;;4.40;;
78989;SDS011;68390;52.130;21.218;2023-07-09T05:20:12;8.70;;;4.32;;
78989;SDS011;68390;52.130;21.218;2023-07-09T05:22:39;6.57;;;4.30;;
78989;SDS011;68390;52.130;21.218;2023-07-09T05:25:04;7.05;;;4.13;;
78989;SDS011;68390;52.130;21.218;2023-07-09T05:27:30;13.60;;;3.92;;
78989;SDS011;68390;52.130;21.218;2023-07-09T05:29:55;6.30;;;3.97;;
78989;SDS011;68390;52.130;21.218;2023-07-09T05:32:21;6.40;;;4.17;;
78989;SDS011;68390;52.130;21.218;2023-07-09T05:34:46;7.15;;;3.88;;
78989;SDS011;68390;52.130;21.218;2023-07-09T05:37:11;7.20;;;3.73;;
78989;SDS011;68390;52.130;21.218;2023-07-09T05:39:37;6.72;;;3.80;;
78989;SDS011;68390;52.130;21.218;2023-07-09T05:42:02;6.60;;;3.95;;
78989;SDS011;68390;52.130;21.218;2023-07-09T05:44:27;5.43;;;3.75;;
78989;SDS011;68390;52.130;21.218;2023-07-09T05:46:53;5.18;;;3.70;;
78989;SDS011;68390;52.130;21.218;2023-07-09T05:49:18;6.10;;;3.90;;
78989;SDS011;68390;52.130;21.218;2023-07-09T05:51:44;6.07;;;3.65;;
78989;SDS011;68390;52.130;21.218;2023-07-09T05:54:09;8.73;;;3.50;;
78989;SDS011;68390;52.130;21.218;2023-07-09T05:56:34;4.57;;;3.55;;
78989;SDS011;68390;52.130;21.218;2023-07-09T05:59:00;4.90;;;3.17;;
78989;SDS011;68390;52.130;21.218;2023-07-09T06:01:26;6.82;;;3.30;;
78989;SDS011;68390;52.130;21.218;2023-07-09T06:03:52;6.07;;;3.50;;
78989;SDS011;68390;52.130;21.218;2023-07-09T06:06:19;5.88;;;3.30;;
78989;SDS011;68390;52.130;21.218;2023-07-09T06:08:45;6.50;;;3.40;;
78989;SDS011;68390;52.130;21.218;2023-07-09T06:11:11;4.85;;;3.10;;
78989;SDS011;68390;52.130;21.218;2023-07-09T06:13:37;4.50;;;2.92;;
78989;SDS011;68390;52.130;21.218;2023-07-09T06:16:03;5.82;;;3.20;;
78989;SDS011;68390;52.130;21.218;2023-07-09T06:18:29;4.32;;;3.20;;
78989;SDS011;68390;52.130;21.218;2023-07-09T06:20:56;5.05;;;3.30;;
78989;SDS011;68390;52.130;21.218;2023-07-09T06:23:25;8.38;;;3.85;;
78989;SDS011;68390;52.130;21.218;2023-07-09T06:25:50;5.22;;;3.00;;
78989;SDS011;68390;52.130;21.218;2023-07-09T06:28:18;4.22;;;3.05;;
78989;SDS011;68390;52.130;21.218;2023-07-09T06:30:45;4.13;;;2.80;;
78989;SDS011;68390;52.130;21.218;2023-07-09T06:33:11;4.55;;;2.97;;
78989;SDS011;68390;52.130;21.218;2023-07-09T06:35:38;4.90;;;2.70;;
78989;SDS011;68390;52.130;21.218;2023-07-09T06:38:04;7.68;;;3.13;;
78989;SDS011;68390;52.130;21.218;2023-07-09T06:40:30;3.90;;;2.78;;
78989;SDS011;68390;52.130;21.218;2023-07-09T06:42:55;5.88;;;2.70;;
78989;SDS011;68390;52.130;21.218;2023-07-09T06:45:22;4.63;;;3.47;;
78989;SDS011;68390;52.130;21.218;2023-07-09T06:47:48;5.32;;;3.20;;
78989;SDS011;68390;52.130;21.218;2023-07-09T06:50:14;5.88;;;2.95;;
78989;SDS011;68390;52.130;21.218;2023-07-09T06:52:40;4.28;;;2.80;;
78989;SDS011;68390;52.130;21.218;2023-07-09T06:55:05;6.03;;;3.05;;
78989;SDS011;68390;52.130;21.218;2023-07-09T06:57:32;5.32;;;3.30;;
78989;SDS011;68390;52.130;21.218;2023-07-09T06:59:57;4.30;;;2.90;;
78989;SDS011;68390;52.130;21.218;2023-07-09T07:02:22;5.45;;;2.83;;
78989;SDS011;68390;52.130;21.218;2023-07-09T07:04:48;4.53;;;2.95;;
78989;SDS011;68390;52.130;21.218;2023-07-09T07:07:13;7.25;;;2.95;;
78989;SDS011;68390;52.130;21.218;2023-07-09T07:09:38;5.75;;;3.00;;
78989;SDS011;68390;52.130;21.218;2023-07-09T07:12:04;5.45;;;3.20;;
78989;SDS011;68390;52.130;21.218;2023-07-09T07:14:30;3.70;;;2.72;;
78989;SDS011;68390;52.130;21.218;2023-07-09T07:16:56;6.22;;;2.75;;
78989;SDS011;68390;52.130;21.218;2023-07-09T07:19:22;10.30;;;3.30;;
78989;SDS011;68390;52.130;21.218;2023-07-09T07:21:48;4.43;;;3.03;;
78989;SDS011;68390;52.130;21.218;2023-07-09T07:24:13;7.47;;;3.05;;
78989;SDS011;68390;52.130;21.218;2023-07-09T07:26:38;5.68;;;3.10;;
78989;SDS011;68390;52.130;21.218;2023-07-09T07:29:04;3.73;;;2.70;;
78989;SDS011;68390;52.130;21.218;2023-07-09T07:31:29;6.15;;;2.67;;
78989;SDS011;68390;52.130;21.218;2023-07-09T07:33:55;4.60;;;2.90;;
78989;SDS011;68390;52.130;21.218;2023-07-09T07:36:20;4.43;;;2.63;;
78989;SDS011;68390;52.130;21.218;2023-07-09T07:38:45;6.25;;;2.97;;
78989;SDS011;68390;52.130;21.218;2023-07-09T07:41:11;6.07;;;2.60;;
78989;SDS011;68390;52.130;21.218;2023-07-09T07:43:36;3.75;;;2.47;;
78989;SDS011;68390;52.130;21.218;2023-07-09T07:46:02;3.75;;;2.40;;
78989;SDS011;68390;52.130;21.218;2023-07-09T07:48:27;6.25;;;2.90;;
78989;SDS011;68390;52.130;21.218;2023-07-09T07:50:58;4.20;;;2.78;;
78989;SDS011;68390;52.130;21.218;2023-07-09T07:53:27;4.72;;;2.97;;
78989;SDS011;68390;52.130;21.218;2023-07-09T07:55:54;6.03;;;2.83;;
78989;SDS011;68390;52.130;21.218;2023-07-09T07:58:21;6.15;;;2.67;;
78989;SDS011;68390;52.130;21.218;2023-07-09T08:00:47;6.53;;;2.95;;
78989;SDS011;68390;52.130;21.218;2023-07-09T08:03:12;4.72;;;2.70;;
78989;SDS011;68390;52.130;21.218;2023-07-09T08:05:38;3.85;;;2.70;;
78989;SDS011;68390;52.130;21.218;2023-07-09T08:08:03;5.65;;;2.70;;
78989;SDS011;68390;52.130;21.218;2023-07-09T08:10:29;6.53;;;2.88;;
78989;SDS011;68390;52.130;21.218;2023-07-09T08:12:54;3.83;;;2.80;;
78989;SDS011;68390;52.130;21.218;2023-07-09T08:15:22;4.20;;;2.70;;
78989;SDS011;68390;52.130;21.218;2023-07-09T08:17:48;6.88;;;2.95;;
78989;SDS011;68390;52.130;21.218;2023-07-09T08:20:13;3.70;;;2.45;;
78989;SDS011;68390;52.130;21.218;2023-07-09T08:22:38;4.07;;;2.58;;
78989;SDS011;68390;52.130;21.218;2023-07-09T08:25:04;6.07;;;2.60;;
78989;SDS011;68390;52.130;21.218;2023-07-09T08:27:30;3.97;;;2.83;;
78989;SDS011;68390;52.130;21.218;2023-07-09T08:29:55;4.15;;;2.65;;
78989;SDS011;68390;52.130;21.218;2023-07-09T08:32:20;3.80;;;2.47;;
78989;SDS011;68390;52.130;21.218;2023-07-09T08:34:46;5.10;;;2.55;;
78989;SDS011;68390;52.130;21.218;2023-07-09T08:37:11;4.20;;;2.50;;
78989;SDS011;68390;52.130;21.218;2023-07-09T08:39:37;4.97;;;2.70;;
78989;SDS011;68390;52.130;21.218;2023-07-09T08:42:14;3.72;;;2.28;;
78989;SDS011;68390;52.130;21.218;2023-07-09T08:47:58;4.22;;;2.20;;
78989;SDS011;68390;52.130;21.218;2023-07-09T08:50:37;3.42;;;1.83;;
78989;SDS011;68390;52.130;21.218;2023-07-09T08:53:09;4.22;;;2.40;;
78989;SDS011;68390;52.130;21.218;2023-07-09T08:55:43;4.35;;;2.00;;
78989;SDS011;68390;52.130;21.218;2023-07-09T08:58:17;4.45;;;2.20;;
78989;SDS011;68390;52.130;21.218;2023-07-09T09:00:58;4.90;;;2.33;;
78989;SDS011;68390;52.130;21.218;2023-07-09T09:03:37;4.00;;;2.40;;
78989;SDS011;68390;52.130;21.218;2023-07-09T09:06:10;4.35;;;2.10;;
78989;SDS011;68390;52.130;21.218;2023-07-09T09:08:41;3.25;;;1.92;;
78989;SDS011;68390;52.130;21.218;2023-07-09T09:11:33;5.25;;;1.90;;
78989;SDS011;68390;52.130;21.218;2023-07-09T09:14:26;4.75;;;1.90;;
78989;SDS011;68390;52.130;21.218;2023-07-09T09:16:55;3.40;;;1.75;;
78989;SDS011;68390;52.130;21.218;2023-07-09T09:19:23;3.25;;;1.98;;
78989;SDS011;68390;52.130;21.218;2023-07-09T09:21:54;3.38;;;2.00;;
78989;SDS011;68390;52.130;21.218;2023-07-09T09:24:35;3.88;;;2.13;;
78989;SDS011;68390;52.130;21.218;2023-07-09T09:27:02;5.03;;;1.80;;
78989;SDS011;68390;52.130;21.218;2023-07-09T09:29:28;2.72;;;1.95;;
78989;SDS011;68390;52.130;21.218;2023-07-09T09:31:54;4.07;;;1.90;;
78989;SDS011;68390;52.130;21.218;2023-07-09T09:34:24;3.00;;;1.80;;
78989;SDS011;68390;52.130;21.218;2023-07-09T09:36:53;2.63;;;1.83;;
78989;SDS011;68390;52.130;21.218;2023-07-09T09:39:20;5.30;;;1.80;;
78989;SDS011;68390;52.130;21.218;2023-07-09T09:41:47;3.72;;;1.67;;
78989;SDS011;68390;52.130;21.218;2023-07-09T09:44:19;3.03;;;1.88;;
78989;SDS011;68390;52.130;21.218;2023-07-09T09:46:49;2.90;;;1.73;;
78989;SDS011;68390;52.130;21.218;2023-07-09T09:49:17;3.55;;;1.63;;
78989;SDS011;68390;52.130;21.218;2023-07-09T09:51:44;2.55;;;1.60;;
78989;SDS011;68390;52.130;21.218;2023-07-09T09:54:16;2.40;;;1.73;;
78989;SDS011;68390;52.130;21.218;2023-07-09T09:56:47;3.60;;;1.60;;
78989;SDS011;68390;52.130;21.218;2023-07-09T09:59:17;4.07;;;1.52;;
78989;SDS011;68390;52.130;21.218;2023-07-09T10:02:00;3.88;;;1.55;;
78989;SDS011;68390;52.130;21.218;2023-07-09T10:04:28;3.35;;;1.60;;
78989;SDS011;68390;52.130;21.218;2023-07-09T10:06:58;2.42;;;1.52;;
78989;SDS011;68390;52.130;21.218;2023-07-09T10:09:41;2.33;;;1.52;;
78989;SDS011;68390;52.130;21.218;2023-07-09T10:15:06;3.25;;;1.60;;
78989;SDS011;68390;52.130;21.218;2023-07-09T10:20:31;2.20;;;1.50;;
78989;SDS011;68390;52.130;21.218;2023-07-09T10:23:21;2.67;;;1.60;;
78989;SDS011;68390;52.130;21.218;2023-07-09T10:25:54;3.00;;;1.52;;
78989;SDS011;68390;52.130;21.218;2023-07-09T10:28:32;3.42;;;1.60;;
78989;SDS011;68390;52.130;21.218;2023-07-09T10:39:59;2.60;;;1.50;;
78989;SDS011;68390;52.130;21.218;2023-07-09T10:42:29;2.50;;;1.65;;
78989;SDS011;68390;52.130;21.218;2023-07-09T10:45:07;2.88;;;1.80;;
78989;SDS011;68390;52.130;21.218;2023-07-09T10:47:43;2.60;;;1.77;;
78989;SDS011;68390;52.130;21.218;2023-07-09T10:50:12;3.00;;;1.65;;
78989;SDS011;68390;52.130;21.218;2023-07-09T10:52:48;3.92;;;1.73;;
78989;SDS011;68390;52.130;21.218;2023-07-09T10:56:00;3.72;;;1.88;;
78989;SDS011;68390;52.130;21.218;2023-07-09T11:00:44;3.73;;;1.80;;
78989;SDS011;68390;52.130;21.218;2023-07-09T11:05:43;3.33;;;1.90;;
78989;SDS011;68390;52.130;21.218;2023-07-09T11:08:13;3.28;;;1.85;;
78989;SDS011;68390;52.130;21.218;2023-07-09T11:10:59;4.40;;;2.00;;
78989;SDS011;68390;52.130;21.218;2023-07-09T11:13:36;3.42;;;1.75;;
78989;SDS011;68390;52.130;21.218;2023-07-09T11:16:05;2.60;;;1.90;;
78989;SDS011;68390;52.130;21.218;2023-07-09T11:18:33;4.70;;;2.00;;
78989;SDS011;68390;52.130;21.218;2023-07-09T11:21:00;3.85;;;1.80;;
78989;SDS011;68390;52.130;21.218;2023-07-09T11:23:53;2.75;;;1.77;;
78989;SDS011;68390;52.130;21.218;2023-07-09T11:26:32;3.22;;;1.80;;
78989;SDS011;68390;52.130;21.218;2023-07-09T11:31:42;3.38;;;2.00;;
78989;SDS011;68390;52.130;21.218;2023-07-09T11:36:57;4.27;;;2.00;;
78989;SDS011;68390;52.130;21.218;2023-07-09T11:49:45;2.97;;;1.45;;
78989;SDS011;68390;52.130;21.218;2023-07-09T11:52:17;2.15;;;1.60;;
78989;SDS011;68390;52.130;21.218;2023-07-09T11:54:49;2.80;;;1.50;;
78989;SDS011;68390;52.130;21.218;2023-07-09T11:57:16;3.78;;;1.60;;
78989;SDS011;68390;52.130;21.218;2023-07-09T11:59:42;3.10;;;1.58;;
78989;SDS011;68390;52.130;21.218;2023-07-09T12:02:19;2.55;;;1.70;;
78989;SDS011;68390;52.130;21.218;2023-07-09T12:04:49;2.92;;;1.70;;
78989;SDS011;68390;52.130;21.218;2023-07-09T12:07:16;2.80;;;1.60;;
78989;SDS011;68390;52.130;21.218;2023-07-09T12:09:49;1.92;;;1.40;;
78989;SDS011;68390;52.130;21.218;2023-07-09T12:12:17;2.60;;;1.60;;
78989;SDS011;68390;52.130;21.218;2023-07-09T12:14:43;3.10;;;1.42;;
78989;SDS011;68390;52.130;21.218;2023-07-09T12:17:09;2.47;;;1.50;;
78989;SDS011;68390;52.130;21.218;2023-07-09T12:19:34;4.05;;;1.60;;
78989;SDS011;68390;52.130;21.218;2023-07-09T12:21:59;2.50;;;1.60;;
78989;SDS011;68390;52.130;21.218;2023-07-09T12:24:30;3.58;;;1.60;;
78989;SDS011;68390;52.130;21.218;2023-07-09T12:27:02;2.70;;;1.63;;
78989;SDS011;68390;52.130;21.218;2023-07-09T12:29:40;2.17;;;1.40;;
78989;SDS011;68390;52.130;21.218;2023-07-09T12:32:10;2.47;;;1.60;;
78989;SDS011;68390;52.130;21.218;2023-07-09T12:34:39;2.83;;;1.90;;
78989;SDS011;68390;52.130;21.218;2023-07-09T12:37:04;3.28;;;1.60;;
78989;SDS011;68390;52.130;21.218;2023-07-09T12:39:30;3.88;;;1.60;;
78989;SDS011;68390;52.130;21.218;2023-07-09T12:42:01;3.20;;;1.70;;
78989;SDS011;68390;52.130;21.218;2023-07-09T12:44:29;2.35;;;1.65;;
78989;SDS011;68390;52.130;21.218;2023-07-09T12:46:58;5.25;;;1.80;;
78989;SDS011;68390;52.130;21.218;2023-07-09T12:49:28;4.00;;;1.60;;
78989;SDS011;68390;52.130;21.218;2023-07-09T12:51:56;2.63;;;1.70;;
78989;SDS011;68390;52.130;21.218;2023-07-09T12:54:23;2.67;;;1.70;;
78989;SDS011;68390;52.130;21.218;2023-07-09T12:56:53;2.67;;;1.80;;
78989;SDS011;68390;52.130;21.218;2023-07-09T13:01:54;3.37;;;1.97;;
78989;SDS011;68390;52.130;21.218;2023-07-09T13:04:19;3.17;;;1.83;;
78989;SDS011;68390;52.130;21.218;2023-07-09T13:06:45;4.80;;;1.70;;
78989;SDS011;68390;52.130;21.218;2023-07-09T13:09:16;3.55;;;1.70;;
78989;SDS011;68390;52.130;21.218;2023-07-09T13:11:46;3.60;;;1.80;;
78989;SDS011;68390;52.130;21.218;2023-07-09T13:14:16;3.25;;;1.70;;
78989;SDS011;68390;52.130;21.218;2023-07-09T13:16:47;3.75;;;1.88;;
78989;SDS011;68390;52.130;21.218;2023-07-09T13:19:13;3.75;;;1.73;;
78989;SDS011;68390;52.130;21.218;2023-07-09T13:21:40;3.38;;;1.80;;
78989;SDS011;68390;52.130;21.218;2023-07-09T13:26:46;2.50;;;1.80;;
78989;SDS011;68390;52.130;21.218;2023-07-09T13:29:13;3.53;;;1.85;;
78989;SDS011;68390;52.130;21.218;2023-07-09T13:31:40;2.53;;;1.67;;
78989;SDS011;68390;52.130;21.218;2023-07-09T13:34:10;3.72;;;1.85;;
78989;SDS011;68390;52.130;21.218;2023-07-09T13:36:43;2.90;;;1.80;;
78989;SDS011;68390;52.130;21.218;2023-07-09T13:39:09;3.03;;;1.90;;
78989;SDS011;68390;52.130;21.218;2023-07-09T13:41:36;2.80;;;1.92;;
78989;SDS011;68390;52.130;21.218;2023-07-09T13:44:04;3.97;;;1.95;;
78989;SDS011;68390;52.130;21.218;2023-07-09T13:46:36;2.53;;;1.65;;
78989;SDS011;68390;52.130;21.218;2023-07-09T13:49:02;3.10;;;1.80;;
78989;SDS011;68390;52.130;21.218;2023-07-09T13:51:28;3.13;;;1.90;;
78989;SDS011;68390;52.130;21.218;2023-07-09T13:53:54;3.85;;;2.08;;
78989;SDS011;68390;52.130;21.218;2023-07-09T13:56:20;2.90;;;1.70;;
78989;SDS011;68390;52.130;21.218;2023-07-09T13:58:46;3.22;;;2.10;;
78989;SDS011;68390;52.130;21.218;2023-07-09T14:01:13;2.90;;;1.90;;
78989;SDS011;68390;52.130;21.218;2023-07-09T14:03:41;3.80;;;1.90;;
78989;SDS011;68390;52.130;21.218;2023-07-09T14:06:08;3.30;;;2.00;;
78989;SDS011;68390;52.130;21.218;2023-07-09T14:08:36;3.47;;;2.15;;
78989;SDS011;68390;52.130;21.218;2023-07-09T14:11:01;2.85;;;1.95;;
78989;SDS011;68390;52.130;21.218;2023-07-09T14:13:27;3.63;;;2.00;;
78989;SDS011;68390;52.130;21.218;2023-07-09T14:15:54;3.63;;;2.10;;
78989;SDS011;68390;52.130;21.218;2023-07-09T14:18:21;2.90;;;1.75;;
78989;SDS011;68390;52.130;21.218;2023-07-09T14:20:47;3.05;;;2.00;;
78989;SDS011;68390;52.130;21.218;2023-07-09T14:23:15;3.45;;;2.10;;
78989;SDS011;68390;52.130;21.218;2023-07-09T14:25:44;3.58;;;1.92;;
78989;SDS011;68390;52.130;21.218;2023-07-09T14:28:11;2.60;;;1.83;;
78989;SDS011;68390;52.130;21.218;2023-07-09T14:30:42;3.78;;;2.10;;
78989;SDS011;68390;52.130;21.218;2023-07-09T14:33:14;2.80;;;1.90;;
78989;SDS011;68390;52.130;21.218;2023-07-09T14:35:41;3.17;;;1.77;;
78989;SDS011;68390;52.130;21.218;2023-07-09T14:38:23;4.13;;;2.03;;
78989;SDS011;68390;52.130;21.218;2023-07-09T14:40:51;2.50;;;1.90;;
78989;SDS011;68390;52.130;21.218;2023-07-09T14:43:19;5.10;;;2.20;;
78989;SDS011;68390;52.130;21.218;2023-07-09T14:45:44;2.85;;;1.90;;
78989;SDS011;68390;52.130;21.218;2023-07-09T14:48:17;2.88;;;1.83;;
78989;SDS011;68390;52.130;21.218;2023-07-09T14:50:44;2.90;;;1.88;;
78989;SDS011;68390;52.130;21.218;2023-07-09T14:53:21;2.55;;;1.80;;
78989;SDS011;68390;52.130;21.218;2023-07-09T14:55:49;2.95;;;1.90;;
78989;SDS011;68390;52.130;21.218;2023-07-09T14:58:19;3.22;;;1.75;;
78989;SDS011;68390;52.130;21.218;2023-07-09T15:00:46;3.53;;;2.00;;
78989;SDS011;68390;52.130;21.218;2023-07-09T15:03:20;3.35;;;2.00;;
78989;SDS011;68390;52.130;21.218;2023-07-09T15:05:48;2.80;;;1.90;;
78989;SDS011;68390;52.130;21.218;2023-07-09T15:08:14;4.05;;;2.30;;
78989;SDS011;68390;52.130;21.218;2023-07-09T15:10:41;2.90;;;2.00;;
78989;SDS011;68390;52.130;21.218;2023-07-09T15:13:13;3.03;;;1.95;;
78989;SDS011;68390;52.130;21.218;2023-07-09T15:15:42;4.20;;;1.90;;
78989;SDS011;68390;52.130;21.218;2023-07-09T15:18:09;4.22;;;2.20;;
78989;SDS011;68390;52.130;21.218;2023-07-09T15:20:36;3.10;;;2.00;;
78989;SDS011;68390;52.130;21.218;2023-07-09T15:23:02;3.67;;;2.22;;
78989;SDS011;68390;52.130;21.218;2023-07-09T15:25:28;2.75;;;1.90;;
78989;SDS011;68390;52.130;21.218;2023-07-09T15:27:55;4.90;;;2.22;;
78989;SDS011;68390;52.130;21.218;2023-07-09T15:30:23;3.08;;;2.15;;